DRI Storm Peak Lab. Weather observations

Data are for 5 minute period ending at time listed.
 Day   Time    Ave.   Ave.  Ave.  Vector  Max.   Total    Baro.    Solar      Aerosol      Ave.  Ultrafine   Snow  
  of    of     Air    Rel.  Wind   Wind   Wind  Precip.   Pres.  Radiation   Aerosol      Ozone   Aerosol    Depth 
Year   Day     Temp.  Hum.  Speed  Dir.   Gust                               Ave.   Max.            Ave.           
2017   (MST)    F      %     mph   deg.    mph    in.      mb.     w/m2         #/cm3      ppbv    #/cm3      in.  
-------------------------------------------------------------------------------------------------------------------
  50   15:15   23.9   100    5.1    37    10.4   999.00    679.6    999.0    999000   999000   999.0    999000   999.0
  50   15:20   23.9   100    4.0    37    10.2   999.00    679.6    999.0    999000   999000   999.0    999000   999.0
  50   15:25   23.8   100    3.2    37     6.5   999.00    679.7    999.0    999000   999000   999.0    999000   999.0
  50   15:30   24.0   100    3.5    37     5.7   999.00    679.7    999.0    999000   999000   999.0    999000   999.0
  50   15:35   24.0   100    3.4    37     6.5   999.00    679.7    999.0    999000   999000   999.0    999000   999.0
  50   15:40   23.9   100    3.4    37     6.8   999.00    679.7    999.0    999000   999000   999.0    999000   999.0
  50   15:45   24.0   100    2.9    37     5.0   999.00    679.7    999.0    999000   999000   999.0    999000   999.0
  50   15:50   24.0   100    4.3    37    10.6   999.00    679.7    999.0    999000   999000   999.0    999000   999.0
  50   15:55   23.9   100    6.0    37    11.7   999.00    679.7    999.0    999000   999000   999.0    999000   999.0
  50   16:00   23.9   100    7.2    37    11.7   999.00    679.7    999.0    999000   999000   999.0    999000   999.0
  50   16:05   23.9   100    6.6    37    11.7   999.00    679.7    999.0    999000   999000   999.0    999000   999.0
  50   16:10   24.0   100    6.0    37    12.2   999.00    679.7    999.0    999000   999000   999.0    999000   999.0
  50   16:15   24.0   100    6.3    37    11.5   999.00    679.7    999.0    999000   999000   999.0    999000   999.0
  50   16:20   24.1   100    3.6    37     6.5   999.00    679.7    999.0    999000   999000   999.0    999000   999.0
  50   16:25   24.2   100    6.4    37    10.9   999.00    679.7    999.0    999000   999000   999.0    999000   999.0
  50   16:30   24.1   100    3.3    37     5.2   999.00    679.7    999.0    999000   999000   999.0    999000   999.0
  50   16:35   24.2   100    5.6    37    11.3   999.00    679.7    999.0    999000   999000   999.0    999000   999.0
  50   16:40   24.1   100    4.0    37     8.5   999.00    679.8    999.0    999000   999000   999.0    999000   999.0
  50   16:45   24.1   100    8.4    37    15.2   999.00    679.8    999.0    999000   999000   999.0    999000   999.0
  50   16:50   24.1   100    6.9    36    14.1   999.00    679.8    999.0    999000   999000   999.0    999000   999.0
  50   16:55   24.1   100   11.8    33    15.4   999.00    679.9    999.0    999000   999000   999.0    999000   999.0
  50   17:00   24.0   100   10.6    33    14.3   999.00    679.8    999.0    999000   999000   999.0    999000   999.0
  50   17:05   24.0   100   10.3    33    14.3   999.00    679.8    999.0    999000   999000   999.0    999000   999.0
  50   17:10   24.0   100    8.1    33    13.5   999.00    679.9    999.0    999000   999000   999.0    999000   999.0
  50   17:15   24.0   100    9.8    34    13.0   999.00    679.9    999.0    999000   999000   999.0    999000   999.0
  50   17:20   24.0   100   10.3    33    14.1   999.00    679.8    999.0    999000   999000   999.0    999000   999.0
  50   17:25   24.0   100   11.8    33    14.6   999.00    679.9    999.0    999000   999000   999.0    999000   999.0
  50   17:30   24.0   100   12.3    32    15.8   999.00    679.9    999.0    999000   999000   999.0    999000   999.0
  50   17:35   24.0   100   13.2    31    17.2   999.00    679.9    999.0    999000   999000   999.0    999000   999.0
  50   17:40   24.0   100   13.6    28    22.3   999.00    679.9    999.0    999000   999000   999.0    999000   999.0
  50   17:45   24.0   100   16.4    15    21.0   999.00    679.9    999.0    999000   999000   999.0    999000   999.0
  50   17:50   23.9   100   19.1   359    29.7   999.00    680.0    999.0    999000   999000   999.0    999000   999.0
  50   17:55   23.9   100   16.3   344    24.7   999.00    680.1    999.0    999000   999000   999.0    999000   999.0
  50   18:00   23.9   100   16.2   344    24.0   999.00    680.1    999.0    999000   999000   999.0    999000   999.0
  50   18:05   23.8   100   18.2   344    24.0   999.00    680.2    999.0    999000   999000   999.0    999000   999.0
  50   18:10   23.6   100   19.4   342    29.2   999.00    680.2    999.0    999000   999000   999.0    999000   999.0
  50   18:15   23.4   100   16.3   341    22.1   999.00    680.3    999.0    999000   999000   999.0    999000   999.0
  50   18:20   23.3   100   18.2   340    25.2   999.00    680.3    999.0    999000   999000   999.0    999000   999.0
  50   18:25   23.1   100   19.6   338    26.4   999.00    680.4    999.0    999000   999000   999.0    999000   999.0
  50   18:30   23.1   100   19.5   338    30.1   999.00    680.4    999.0    999000   999000   999.0    999000   999.0
  50   18:35   23.1   100   16.1   338    24.7   999.00    680.5    999.0    999000   999000   999.0    999000   999.0
  50   18:40   23.0   100   16.9   338    30.6   999.00    680.5    999.0    999000   999000   999.0    999000   999.0
  50   18:45   23.0   100   18.0   336    24.9   999.00    680.5    999.0    999000   999000   999.0    999000   999.0
  50   18:50   22.9   100   19.4   336    29.0   999.00    680.5    999.0    999000   999000   999.0    999000   999.0
  50   18:55   22.7   100   15.9   336    21.9   999.00    680.6    999.0    999000   999000   999.0    999000   999.0
  50   19:00   22.7   100   18.8   335    25.8   999.00    680.5    999.0    999000   999000   999.0    999000   999.0
  50   19:05   22.5   100   20.9   307    27.1   999.00    680.5    999.0    999000   999000   999.0    999000   999.0
  50   19:10   22.0   100   22.4   278    26.9   999.00    680.5    999.0    999000   999000   999.0    999000   999.0
  50   19:15   21.6   100   20.1   279    27.5   999.00    680.5    999.0    999000   999000   999.0    999000   999.0
  50   19:20   21.4   100   16.9   280    26.2   999.00    680.6    999.0    999000   999000   999.0    999000   999.0
  50   19:25   21.3   100   14.0   276    21.1   999.00    680.8    999.0    999000   999000   999.0    999000   999.0
  50   19:30   21.3   100   15.2   279    21.5   999.00    680.9    999.0    999000   999000   999.0    999000   999.0
  50   19:35   21.2   100   16.6   278    22.3   999.00    680.9    999.0    999000   999000   999.0    999000   999.0
  50   19:40   21.2   100   15.1   280    19.3   999.00    680.9    999.0    999000   999000   999.0    999000   999.0
  50   19:45   21.0   100   16.8   275    21.7   999.00    681.1    999.0    999000   999000   999.0    999000   999.0
  50   19:50   20.7   100   16.0   272    21.1   999.00    681.1    999.0    999000   999000   999.0    999000   999.0
  50   19:55   20.5   100   13.1   277    20.0   999.00    681.2    999.0    999000   999000   999.0    999000   999.0
  50   20:00   20.6   100   11.6   273    15.6   999.00    681.3    999.0    999000   999000   999.0    999000   999.0
  50   20:05   20.4   100    9.5   282    13.5   999.00    681.4    999.0    999000   999000   999.0    999000   999.0
  50   20:10   20.5   100   10.5   284    16.3   999.00    681.4    999.0    999000   999000   999.0    999000   999.0
  50   20:15   20.4   100   10.3   292    15.8   999.00    681.4    999.0    999000   999000   999.0    999000   999.0
  50   20:20   20.5   100   11.0   294    16.1   999.00    681.4    999.0    999000   999000   999.0    999000   999.0
  50   20:25   20.4   100   10.3   297    13.2   999.00    681.5    999.0    999000   999000   999.0    999000   999.0
  50   20:30   20.2   100   10.7   294    14.8   999.00    681.7    999.0    999000   999000   999.0    999000   999.0
  50   20:35   20.2   100    9.6   300    12.6   999.00    681.8    999.0    999000   999000   999.0    999000   999.0
  50   20:40   20.1   100    9.6   290    13.5   999.00    681.9    999.0    999000   999000   999.0    999000   999.0
  50   20:45   19.9   100   10.6   291    13.3   999.00    681.9    999.0    999000   999000   999.0    999000   999.0
  50   20:50   19.7   100   11.1   292    13.9   999.00    682.0    999.0    999000   999000   999.0    999000   999.0
  50   20:55   19.5   100   10.8   300    13.2   999.00    682.1    999.0    999000   999000   999.0    999000   999.0
  50   21:00   19.5   100    9.4   293    11.8   999.00    682.2    999.0    999000   999000   999.0    999000   999.0
  50   21:05   19.4   100   12.1   290    14.6   999.00    682.3    999.0    999000   999000   999.0    999000   999.0
  50   21:10   18.9   100   11.4   300    14.3   999.00    682.3    999.0    999000   999000   999.0    999000   999.0
  50   21:15   18.6   100   11.3   304    14.8   999.00    682.3    999.0    999000   999000   999.0    999000   999.0
  50   21:20   18.5   100   10.6   298    13.9   999.00    682.4    999.0    999000   999000   999.0    999000   999.0
  50   21:25   18.5   100   10.4   293    13.0   999.00    682.6    999.0    999000   999000   999.0    999000   999.0
  50   21:30   18.6   100    9.4   285    12.8   999.00    682.8    999.0    999000   999000   999.0    999000   999.0
  50   21:35   18.7   100    9.0   282    11.7   999.00    682.8    999.0    999000   999000   999.0    999000   999.0
  50   21:40   18.6   100    9.0   274    12.6   999.00    682.9    999.0    999000   999000   999.0    999000   999.0
  50   21:45   18.7   100    7.8   275    11.1   999.00    682.9    999.0    999000   999000   999.0    999000   999.0
  50   21:50   18.5   100    7.8   272    10.7   999.00    682.8    999.0    999000   999000   999.0    999000   999.0
  50   21:55   18.2   100   10.6   270    13.7   999.00    682.7    999.0    999000   999000   999.0    999000   999.0
  50   22:00   18.0   100    8.7   272    11.8   999.00    682.7    999.0    999000   999000   999.0    999000   999.0
  50   22:05   18.1   100    9.9   275    12.2   999.00    682.7    999.0    999000   999000   999.0    999000   999.0
  50   22:10   18.0   100    9.0   278    11.5   999.00    682.8    999.0    999000   999000   999.0    999000   999.0
  50   22:15   18.0   100    9.1   275    11.8   999.00    682.9    999.0    999000   999000   999.0    999000   999.0
  50   22:20   17.9   100    8.6   276    10.7   999.00    683.0    999.0    999000   999000   999.0    999000   999.0
  50   22:25   18.0   100    8.4   276    10.2   999.00    683.0    999.0    999000   999000   999.0    999000   999.0
  50   22:30   18.0   100    8.3   276    10.2   999.00    683.1    999.0    999000   999000   999.0    999000   999.0
  50   22:35   18.0   100    7.6   269    11.3   999.00    683.3    999.0    999000   999000   999.0    999000   999.0
  50   22:40   17.9   100    8.5   267    13.2   999.00    683.2    999.0    999000   999000   999.0    999000   999.0
  50   22:45   18.0   100    7.8   270    10.2   999.00    683.3    999.0    999000   999000   999.0    999000   999.0
  50   22:50   18.1   100    8.2   272    10.0   999.00    683.4    999.0    999000   999000   999.0    999000   999.0
  50   22:55   18.0   100    6.4   270     9.4   999.00    683.6    999.0    999000   999000   999.0    999000   999.0
  50   23:00   18.0   100    2.5   269     4.4   999.00    683.7    999.0    999000   999000   999.0    999000   999.0
  50   23:05   18.1   100    2.6   270     9.6   999.00    683.7    999.0    999000   999000   999.0    999000   999.0
  50   23:10   18.2   100   10.4   270    15.8   999.00    683.7    999.0    999000   999000   999.0    999000   999.0
  50   23:15   18.2   100   12.8   271    17.8   999.00    683.6    999.0    999000   999000   999.0    999000   999.0
  50   23:20   18.1   100   14.1   275    18.5   999.00    683.6    999.0    999000   999000   999.0    999000   999.0
  50   23:25   18.1   100   12.1   276    15.4   999.00    683.7    999.0    999000   999000   999.0    999000   999.0
  50   23:30   18.2   100   11.6   276    14.3   999.00    683.8    999.0    999000   999000   999.0    999000   999.0
  50   23:35   18.2   100   12.5   277    15.9   999.00    683.9    999.0    999000   999000   999.0    999000   999.0
  50   23:40   18.2   100   11.4   279    14.1   999.00    683.9    999.0    999000   999000   999.0    999000   999.0
  50   23:45   18.2   100   12.2   279    15.2   999.00    684.0    999.0    999000   999000   999.0    999000   999.0
  50   23:50   18.2   100   11.2   279    13.9   999.00    684.0    999.0    999000   999000   999.0    999000   999.0
  50   23:55   18.1   100   12.0   281    16.5   999.00    684.1    999.0    999000   999000   999.0    999000   999.0
  51    0:00   18.0   100   12.5   282    15.2   999.00    684.2    999.0    999000   999000   999.0    999000   999.0
  51    0:05   18.2   100    9.7   283    12.0   999.00    684.4    999.0    999000   999000   999.0    999000   999.0
  51    0:10   18.4   100   10.4   283    13.7   999.00    684.4    999.0    999000   999000   999.0    999000   999.0
  51    0:15   18.3   100   10.2   283    13.9   999.00    684.4    999.0    999000   999000   999.0    999000   999.0
  51    0:20   18.2   100    8.9   283    12.8   999.00    684.4    999.0    999000   999000   999.0    999000   999.0
  51    0:25   18.2   100    9.9   281    13.2   999.00    684.4    999.0    999000   999000   999.0    999000   999.0
  51    0:30   18.2   100    6.8   282    12.2   999.00    684.5    999.0    999000   999000   999.0    999000   999.0
  51    0:35   18.2   100    9.5   281    16.5   999.00    684.6    999.0    999000   999000   999.0    999000   999.0
  51    0:40   17.9   100   11.4   281    17.4   999.00    684.7    999.0    999000   999000   999.0    999000   999.0
  51    0:45   17.8   100   10.7   281    15.4   999.00    684.7    999.0    999000   999000   999.0    999000   999.0
  51    0:50   17.8   100   10.9   281    13.9   999.00    684.7    999.0    999000   999000   999.0    999000   999.0
  51    0:55   17.8   100   12.3   279    15.9   999.00    684.7    999.0    999000   999000   999.0    999000   999.0
  51    1:00   17.9   100    4.2   279    10.6   999.00    684.7    999.0    999000   999000   999.0    999000   999.0
  51    1:05   17.8   100    5.5   278    11.5   999.00    684.8    999.0    999000   999000   999.0    999000   999.0
  51    1:10   17.7   100    3.6   278     9.8   999.00    684.8    999.0    999000   999000   999.0    999000   999.0
  51    1:15   17.4   100   13.7   280    20.8   999.00    684.7    999.0    999000   999000   999.0    999000   999.0
  51    1:20   17.1   100   10.5   279    18.0   999.00    684.8    999.0    999000   999000   999.0    999000   999.0
  51    1:25   17.1   100    6.6   278    15.9   999.00    684.9    999.0    999000   999000   999.0    999000   999.0
  51    1:30   17.0   100    7.0   278    17.4   999.00    685.0    999.0    999000   999000   999.0    999000   999.0
  51    1:35   17.1   100    6.0   277    11.8   999.00    685.1    999.0    999000   999000   999.0    999000   999.0
  51    1:40   17.4   100    7.5   277    16.3   999.00    685.0    999.0    999000   999000   999.0    999000   999.0
  51    1:45   17.5   100    5.5   277    16.7   999.00    685.0    999.0    999000   999000   999.0    999000   999.0
  51    1:50   17.3   100   13.5   263    19.3   999.00    684.9    999.0    999000   999000   999.0    999000   999.0
  51    1:55   17.2   100   12.2   264    17.2   999.00    684.9    999.0    999000   999000   999.0    999000   999.0
  51    2:00   17.0   100    9.8   263    15.4   999.00    684.9    999.0    999000   999000   999.0    999000   999.0
  51    2:05   17.0   100   12.1   264    18.9   999.00    685.0    999.0    999000   999000   999.0    999000   999.0
  51    2:10   17.0   100    7.3   264    17.4   999.00    685.1    999.0    999000   999000   999.0    999000   999.0
  51    2:15   17.2   100    9.6   262    15.6   999.00    685.0    999.0    999000   999000   999.0    999000   999.0
  51    2:20   17.3   100   12.1   264    19.3   999.00    685.0    999.0    999000   999000   999.0    999000   999.0
  51    2:25   17.3   100   13.0   266    18.4   999.00    685.0    999.0    999000   999000   999.0    999000   999.0
  51    2:30   17.2   100   14.6   265    26.0   999.00    685.0    999.0    999000   999000   999.0    999000   999.0
  51    2:35   17.4   100    9.2   265    19.3   999.00    685.1    999.0    999000   999000   999.0    999000   999.0
  51    2:40   17.3   100   12.8   263    18.2   999.00    685.1    999.0    999000   999000   999.0    999000   999.0
  51    2:45   17.4   100    9.7   265    14.6   999.00    685.2    999.0    999000   999000   999.0    999000   999.0
  51    2:50   17.4   100   15.5   255    26.2   999.00    685.1    999.0    999000   999000   999.0    999000   999.0
  51    2:55   17.3   100   15.6   254    20.0   999.00    685.1    999.0    999000   999000   999.0    999000   999.0
  51    3:00   17.2   100   16.7   256    21.7   999.00    685.1    999.0    999000   999000   999.0    999000   999.0
  51    3:05   17.3   100   14.1   257    18.4   999.00    685.1    999.0    999000   999000   999.0    999000   999.0
  51    3:10   17.1   100   11.9   257    15.9   999.00    685.2    999.0    999000   999000   999.0    999000   999.0
  51    3:15   17.2   100    9.9   257    16.7   999.00    685.4    999.0    999000   999000   999.0    999000   999.0
  51    3:20   17.3   100   12.8   258    16.7   999.00    685.4    999.0    999000   999000   999.0    999000   999.0
  51    3:25   17.2   100   12.6   258    15.4   999.00    685.4    999.0    999000   999000   999.0    999000   999.0
  51    3:30   17.3   100    9.9   258    15.2   999.00    685.5    999.0    999000   999000   999.0    999000   999.0
  51    3:35   17.3   100    7.5   258    12.4   999.00    685.6    999.0    999000   999000   999.0    999000   999.0
  51    3:40   17.2   100    6.5   257    14.8   999.00    685.5    999.0    999000   999000   999.0    999000   999.0
  51    3:45   17.2   100    4.7   257    11.7   999.00    685.5    999.0    999000   999000   999.0    999000   999.0
  51    3:50   17.3   100   10.7   258    15.0   999.00    685.5    999.0    999000   999000   999.0    999000   999.0
  51    3:55   17.2   100   12.2   259    15.6   999.00    685.5    999.0    999000   999000   999.0    999000   999.0
  51    4:00   17.1   100    9.3   258    12.8   999.00    685.6    999.0    999000   999000   999.0    999000   999.0
  51    4:05   17.0   100    5.2   258    11.7   999.00    685.7    999.0    999000   999000   999.0    999000   999.0
  51    4:10   17.1   100    9.7   248    21.9   999.00    685.7    999.0    999000   999000   999.0    999000   999.0
  51    4:15   17.2   100   10.0   254    15.8   999.00    685.8    999.0    999000   999000   999.0    999000   999.0
  51    4:20   17.3   100   15.5   269    29.7   999.00    685.7    999.0    999000   999000   999.0    999000   999.0
  51    4:25   17.0   100    8.4   278    16.9   999.00    685.8    999.0    999000   999000   999.0    999000   999.0
  51    4:30   16.9   100   15.0   277    26.5   999.00    685.8    999.0    999000   999000   999.0    999000   999.0
  51    4:35   16.9   100   11.4   277    18.4   999.00    685.9    999.0    999000   999000   999.0    999000   999.0
  51    4:40   16.8   100   10.1   277    14.8   999.00    685.9    999.0    999000   999000   999.0    999000   999.0
  51    4:45   16.9   100   11.0   277    15.2   999.00    686.0    999.0    999000   999000   999.0    999000   999.0
  51    4:50   16.9   100    6.3   277    12.2   999.00    686.1    999.0    999000   999000   999.0    999000   999.0
  51    4:55   17.1   100   11.4   277    19.5   999.00    686.1    999.0    999000   999000   999.0    999000   999.0
  51    5:00   17.1   100   15.4   277    20.4   999.00    686.1    999.0    999000   999000   999.0    999000   999.0
  51    5:05   17.0   100   11.9   277    17.1   999.00    686.2    999.0    999000   999000   999.0    999000   999.0
  51    5:10   17.0   100   11.9   277    17.1   999.00    686.2    999.0    999000   999000   999.0    999000   999.0
  51    5:15   17.1   100   12.5   277    18.4   999.00    686.2    999.0    999000   999000   999.0    999000   999.0
  51    5:20   17.0   100   13.2   277    17.4   999.00    686.2    999.0    999000   999000   999.0    999000   999.0
  51    5:25   16.7   100   13.2   277    15.9   999.00    686.3    999.0    999000   999000   999.0    999000   999.0
  51    5:30   16.6   100   12.6   277    15.8   999.00    686.4    999.0    999000   999000   999.0    999000   999.0
  51    5:35   16.4   100   14.4   277    18.4   999.00    686.4    999.0    999000   999000   999.0    999000   999.0
  51    5:40   16.4   100   11.2   277    15.0   999.00    686.5    999.0    999000   999000   999.0    999000   999.0
  51    5:45   16.5   100   11.1   277    14.8   999.00    686.6    999.0    999000   999000   999.0    999000   999.0
  51    5:50   16.7   100    9.9   277    12.8   999.00    686.6    999.0    999000   999000   999.0    999000   999.0
  51    5:55   16.8   100    9.9   277    12.8   999.00    686.7    999.0    999000   999000   999.0    999000   999.0
  51    6:00   16.9   100    9.6   277    13.2   999.00    686.7    999.0    999000   999000   999.0    999000   999.0
  51    6:05   16.8   100    4.8   277     9.2   999.00    686.8    999.0    999000   999000   999.0    999000   999.0
  51    6:10   16.9   100    2.6   277     6.8   999.00    686.8    999.0    999000   999000   999.0    999000   999.0
  51    6:15   16.9   100    6.1   277    10.9   999.00    686.8    999.0    999000   999000   999.0    999000   999.0
  51    6:20   16.7   100    8.9   277    13.9   999.00    686.9    999.0    999000   999000   999.0    999000   999.0
  51    6:25   16.8   100    4.1   277    10.0   999.00    686.9    999.0    999000   999000   999.0    999000   999.0
  51    6:30   16.7   100    7.1   277    11.3   999.00    686.9    999.0    999000   999000   999.0    999000   999.0
  51    6:35   16.6   100    8.5   277    14.4   999.00    686.9    999.0    999000   999000   999.0    999000   999.0
  51    6:40   16.4   100    8.6   277    13.3   999.00    686.9    999.0    999000   999000   999.0    999000   999.0
  51    6:45   16.3   100   10.2   277    13.3   999.00    687.0    999.0    999000   999000   999.0    999000   999.0
  51    6:50   16.2   100   10.2   277    13.2   999.00    687.0    999.0    999000   999000   999.0    999000   999.0
  51    6:55   16.1   100    8.7   277    12.4   999.00    687.0    999.0    999000   999000   999.0    999000   999.0
  51    7:00   16.0   100    8.0   277    12.0   999.00    687.1    999.0    999000   999000   999.0    999000   999.0
  51    7:05   16.1   100   10.7   277    15.9   999.00    687.1    999.0    999000   999000   999.0    999000   999.0
  51    7:10   16.3   100    5.9   277    11.5   999.00    687.2    999.0    999000   999000   999.0    999000   999.0
  51    7:15   16.4   100    7.1   277    12.6   999.00    687.3    999.0    999000   999000   999.0    999000   999.0
  51    7:20   16.5   100    8.2   277    13.3   999.00    687.4    999.0    999000   999000   999.0    999000   999.0
  51    7:25   16.6   100    6.8   277    10.6   999.00    687.4    999.0    999000   999000   999.0    999000   999.0
  51    7:30   16.7   100    4.1   277     8.3   999.00    687.5    999.0    999000   999000   999.0    999000   999.0
  51    7:35   16.5   100    4.8   277     9.2   999.00    687.5    999.0    999000   999000   999.0    999000   999.0
  51    7:40   16.5   100    3.2   277     7.9   999.00    687.6    999.0    999000   999000   999.0    999000   999.0
  51    7:45   16.4   100    2.8   277     4.6   999.00    687.6    999.0    999000   999000   999.0    999000   999.0
  51    7:50   16.3   100    4.6   277    11.3   999.00    687.5    999.0    999000   999000   999.0    999000   999.0
  51    7:55   16.3   100    7.4   277    11.3   999.00    687.6    999.0    999000   999000   999.0    999000   999.0
  51    8:00   16.3   100   10.2   277    13.0   999.00    687.6    999.0    999000   999000   999.0    999000   999.0
  51    8:05   16.3   100   11.6   277    15.4   999.00    687.6    999.0    999000   999000   999.0    999000   999.0
  51    8:10   16.5   100   11.9   277    15.4   999.00    687.6    999.0    999000   999000   999.0    999000   999.0
  51    8:15   16.4   100   12.5   277    15.2   999.00    687.7    999.0    999000   999000   999.0    999000   999.0
  51    8:20   16.5   100   12.7   277    16.1   999.00    687.8    999.0    999000   999000   999.0    999000   999.0
  51    8:25   16.4   100   12.9   277    17.2   999.00    687.9    999.0    999000   999000   999.0    999000   999.0
  51    8:30   16.2   100   12.9   277    17.1   999.00    687.9    999.0    999000   999000   999.0    999000   999.0
  51    8:35   16.3   100   10.0   277    15.0   999.00    687.9    999.0    999000   999000   999.0    999000   999.0
  51    8:40   16.2    99   13.0   277    16.3   999.00    688.0    999.0    999000   999000   999.0    999000   999.0
  51    8:45   16.2    99   15.0   277    18.0   999.00    688.1    999.0    999000   999000   999.0    999000   999.0
  51    8:50   16.1    99   16.6   277    20.6   999.00    688.1    999.0    999000   999000   999.0    999000   999.0
  51    8:55   16.1    99   14.0   277    17.4   999.00    688.2    999.0    999000   999000   999.0    999000   999.0
  51    9:00   16.3    99   12.0   277    16.1   999.00    688.1    999.0    999000   999000   999.0    999000   999.0
  51    9:05   16.2    99    9.8   277    13.0   999.00    688.2    999.0    999000   999000   999.0    999000   999.0
  51    9:10   16.3    99    6.1   277    10.9   999.00    688.3    999.0    999000   999000   999.0    999000   999.0
  51    9:15   16.4    99    6.4   276    10.4   999.00    688.5    999.0    999000   999000   999.0    999000   999.0
  51    9:20   16.4    99    5.2   276    15.2   999.00    688.6    999.0    999000   999000   999.0    999000   999.0
  51    9:25   16.3    99    4.8   276    10.4   999.00    688.5    999.0    999000   999000   999.0    999000   999.0
  51    9:30   16.3    99    5.1   276     9.6   999.00    688.5    999.0    999000   999000   999.0    999000   999.0
  51    9:35   16.3    99    8.2   276    11.8   999.00    688.5    999.0    999000   999000   999.0    999000   999.0
  51    9:40   16.2    99   10.6   276    14.3   999.00    688.7    999.0    999000   999000   999.0    999000   999.0
  51    9:45   16.2    99   12.8   275    17.6   999.00    688.8    999.0    999000   999000   999.0    999000   999.0
  51    9:50   16.3    99   14.8   275    21.1   999.00    689.0    999.0    999000   999000   999.0    999000   999.0
  51    9:55   16.5    99   15.4   275    20.0   999.00    689.1    999.0    999000   999000   999.0    999000   999.0
  51   10:00   16.4    99   13.3   274    18.9   999.00    689.1    999.0    999000   999000   999.0    999000   999.0
  51   10:05   16.6    99   14.8   273    20.4   999.00    689.1    999.0    999000   999000   999.0    999000   999.0
  51   10:10   16.5    99   17.9   273    22.3   999.00    689.2    999.0    999000   999000   999.0    999000   999.0
  51   10:15   16.9    99   17.3   272    22.6   999.00    689.2    999.0    999000   999000   999.0    999000   999.0
  51   10:20   17.0    99   14.0   273    21.9   999.00    689.3    999.0    999000   999000   999.0    999000   999.0
  51   10:25   17.3    99   15.5   273    20.8   999.00    689.4    999.0    999000   999000   999.0    999000   999.0
  51   10:30   17.5    99   14.0   273    19.1   999.00    689.7    999.0    999000   999000   999.0    999000   999.0
  51   10:35   17.8    99   13.8   273    21.1   999.00    689.7    999.0    999000   999000   999.0    999000   999.0
  51   10:40   18.0    99   13.5   273    19.1   999.00    689.7    999.0    999000   999000   999.0    999000   999.0
  51   10:45   18.1    99   14.0   273    18.7   999.00    689.8    999.0    999000   999000   999.0    999000   999.0
  51   10:50   18.4    99   11.1   273    14.6   999.00    689.9    999.0    999000   999000   999.0    999000   999.0
  51   10:55   18.3    99   14.0   273    18.2   999.00    689.9    999.0    999000   999000   999.0    999000   999.0
  51   11:00   18.3    99   11.2   273    16.3   999.00    689.9    999.0    999000   999000   999.0    999000   999.0
  51   11:05   18.4    99   12.0   273    15.4   999.00    689.9    999.0    999000   999000   999.0    999000   999.0
  51   11:10   18.2    99   12.3   273    17.8   999.00    689.9    999.0    999000   999000   999.0    999000   999.0
  51   11:15   18.3    99    8.1   273    14.6   999.00    689.8    999.0    999000   999000   999.0    999000   999.0
  51   11:20   18.6    99    9.3   272    17.8   999.00    689.8    999.0    999000   999000   999.0    999000   999.0
  51   11:25   19.0    99    9.8   272    16.7   999.00    689.8    999.0    999000   999000   999.0    999000   999.0
  51   11:30   19.1    99   15.1   272    21.1   999.00    689.9    999.0    999000   999000   999.0    999000   999.0
  51   11:35   19.4    99   13.6   272    18.2   999.00    689.9    999.0    999000   999000   999.0    999000   999.0
  51   11:40   19.6    99   11.3   272    17.8   999.00    689.8    999.0    999000   999000   999.0    999000   999.0
  51   11:45   19.4    99   12.5   272    18.7   999.00    689.9    999.0    999000   999000   999.0    999000   999.0
  51   11:50   19.6    99    8.5   273    13.9   999.00    689.9    999.0    999000   999000   999.0    999000   999.0
  51   11:55   19.7    99   13.5   272    20.4   999.00    689.9    999.0    999000   999000   999.0    999000   999.0
  51   12:00   19.8    99   12.0   273    16.7   999.00    690.0    999.0    999000   999000   999.0    999000   999.0
  51   12:05   20.0    99   15.4   272    20.4   999.00    689.9    999.0    999000   999000   999.0    999000   999.0
  51   12:10   20.1    99    7.3   273    14.8   999.00    689.9    999.0    999000   999000   999.0    999000   999.0
  51   12:15   20.4    99    9.3   273    13.2   999.00    689.9    999.0    999000   999000   999.0    999000   999.0
  51   12:20   20.4    99    4.1   273    11.3   999.00    690.0    999.0    999000   999000   999.0    999000   999.0
  51   12:25   20.5    99    3.5   273     8.7   999.00    690.0    999.0    999000   999000   999.0    999000   999.0
  51   12:30   20.6    99    7.4   273    13.7   999.00    690.0    999.0    999000   999000   999.0    999000   999.0
  51   12:35   20.7    99    5.7   273    10.9   999.00    690.0    999.0    999000   999000   999.0    999000   999.0
  51   12:40   20.9    98    5.9   273     9.8   999.00    690.1    999.0    999000   999000   999.0    999000   999.0
  51   12:45   21.2    98    7.3   273    11.1   999.00    690.1    999.0    999000   999000   999.0    999000   999.0
  51   12:50   21.2    98    7.3   273    13.5   999.00    690.1    999.0    999000   999000   999.0    999000   999.0
  51   12:55   21.2    98    9.9   273    19.7   999.00    690.1    999.0    999000   999000   999.0    999000   999.0
  51   13:00   21.5    97    5.8   273    14.3   999.00    690.0    999.0    999000   999000   999.0    999000   999.0
  51   13:05   21.8    97    3.7   273     9.1   999.00    690.1    999.0    999000   999000   999.0    999000   999.0
  51   13:10   22.0    97    7.1   273    14.3   999.00    690.0    999.0    999000   999000   999.0    999000   999.0
  51   13:15   21.9    97    7.7   273    13.0   999.00    690.0    999.0    999000   999000   999.0    999000   999.0
  51   13:20   22.2    97    6.2   273    10.7   999.00    690.0    999.0    999000   999000   999.0    999000   999.0
  51   13:25   22.3    96    2.6   273     4.6   999.00    690.0    999.0    999000   999000   999.0    999000   999.0
  51   13:30   22.9    97    2.3   273     4.4   999.00    690.0    999.0    999000   999000   999.0    999000   999.0
  51   13:35   22.7    95    3.6   273     8.9   999.00    689.9    999.0    999000   999000   999.0    999000   999.0
  51   13:40   22.8    95    2.9   273     5.3   999.00    689.9    999.0    999000   999000   999.0    999000   999.0
  51   13:45   22.9    94    6.3   273    13.3   999.00    690.0    999.0    999000   999000   999.0    999000   999.0
  51   13:50   22.9    95    5.3   273    10.6   999.00    689.9    999.0    999000   999000   999.0    999000   999.0
  51   13:55   22.4    94    7.0   273    14.3   999.00    690.0    999.0    999000   999000   999.0    999000   999.0
  51   14:00   22.8    95    4.3   273    11.7   999.00    689.9    999.0    999000   999000   999.0    999000   999.0
  51   14:05   23.1    94    4.2   273    12.6   999.00    689.9    999.0    999000   999000   999.0    999000   999.0
  51   14:10   23.3    93    3.3   273    10.4   999.00    689.9    999.0    999000   999000   999.0    999000   999.0
  51   14:15   23.6    94    8.9   273    13.7   999.00    690.0    999.0    999000   999000   999.0    999000   999.0
  51   14:20   23.8    93    6.8   273    13.2   999.00    690.0    999.0    999000   999000   999.0    999000   999.0
  51   14:25   23.7    92    7.6   273    16.1   999.00    690.0    999.0    999000   999000   999.0    999000   999.0
  51   14:30   23.9    94    4.0   273    10.4   999.00    690.1    999.0    999000   999000   999.0    999000   999.0
  51   14:35   23.5    93    7.7   273    14.3   999.00    690.1    999.0    999000   999000   999.0    999000   999.0
  51   14:40   23.2    93    6.7   273    13.5   999.00    690.1    999.0    999000   999000   999.0    999000   999.0
  51   14:45   23.0    94    4.8   273    12.4   999.00    690.2    999.0    999000   999000   999.0    999000   999.0
  51   14:50   23.1    96    7.1   273    14.8   999.00    690.2    999.0    999000   999000   999.0    999000   999.0
  51   14:55   22.9    95    9.6   273    14.1   999.00    690.2    999.0    999000   999000   999.0    999000   999.0
  51   15:00   22.9    96    4.2   273     9.8   999.00    690.2    999.0    999000   999000   999.0    999000   999.0
  51   15:05   23.0    97    4.5   273    13.2   999.00    690.2    999.0    999000   999000   999.0    999000   999.0
  51   15:10   23.4    97    3.5   273     7.0   999.00    690.2    999.0    999000   999000   999.0    999000   999.0

Return to DRI Storm Peak Lab. graphs page.


Western Regional Climate Center,wrcc@dri.edu